Time;durP1;ratioP1;P1;durP2;ratioP2;P2;SDS_P1;SDS_P2;PMS_P1;PMS_P2;Temp;Humidity;BMP_temperature;BMP_pressure;BME280_temperature;BME280_humidity;BME280_pressure;Samples;Min_cycle;Max_cycle;Signal;HPM_P1;HPM_P2
2022/11/25 00:05:33;;;;;;;34.65;18.35;;;;;;;2.75;100.00;100273.06;20995320;28;20095;-73
2022/11/25 00:15:35;;;;;;;37.40;18.92;;;;;;;2.69;100.00;100266.09;20996109;28;20053;-75
2022/11/25 00:25:36;;;;;;;33.72;16.25;;;;;;;2.76;100.00;100251.53;20915971;28;20056;-73
2022/11/25 00:35:37;;;;;;;33.38;18.20;;;;;;;2.83;100.00;100253.38;20909852;28;20053;-75
2022/11/25 00:45:39;;;;;;;31.40;14.63;;;;;;;2.97;100.00;100256.09;20909594;28;20409;-76
2022/11/25 01:06:00;;;;;;;28.23;13.18;;;;;;;2.96;100.00;100259.56;20907478;28;20505;-72
2022/11/25 01:16:02;;;;;;;23.95;11.52;;;;;;;3.13;100.00;100289.09;20906609;28;20049;-73
2022/11/25 01:26:03;;;;;;;17.80;10.90;;;;;;;3.15;100.00;100292.56;20987021;28;20589;-72
2022/11/25 01:36:04;;;;;;;21.27;10.88;;;;;;;3.15;100.00;100302.91;20987191;28;20070;-73
2022/11/25 01:46:06;;;;;;;20.88;10.68;;;;;;;3.23;100.00;100298.69;20987894;28;20106;-72
2022/11/25 01:56:07;;;;;;;27.00;12.63;;;;;;;3.24;100.00;100290.09;20986087;28;20072;-72
2022/11/25 02:06:09;;;;;;;19.92;10.65;;;;;;;3.19;100.00;100296.06;20985059;28;20052;-74
2022/11/25 02:16:10;;;;;;;23.10;11.15;;;;;;;3.18;100.00;100279.66;20985805;28;20045;-73
2022/11/25 02:26:12;;;;;;;22.17;11.55;;;;;;;3.16;100.00;100280.50;20902935;28;20072;-73
2022/11/25 02:36:13;;;;;;;24.27;11.80;;;;;;;3.12;100.00;100292.53;20901908;28;20102;-74
2022/11/25 02:46:14;;;;;;;17.65;9.93;;;;;;;3.22;100.00;100267.66;20900828;28;20053;-75
2022/11/25 02:56:22;;;;;;;17.90;8.68;;;;;;;3.19;100.00;100252.94;20900876;28;20488;-75
2022/11/25 03:06:23;;;;;;;24.70;8.68;;;;;;;3.10;100.00;100265.75;20898785;28;20102;-74
2022/11/25 03:16:24;;;;;;;18.88;8.80;;;;;;;2.80;100.00;100267.13;20829998;28;20072;-74
2022/11/25 03:26:26;;;;;;;19.88;9.73;;;;;;;2.80;100.00;100256.78;20982783;28;20497;-74
2022/11/25 03:36:27;;;;;;;18.95;9.32;;;;;;;3.04;100.00;100260.53;20982217;28;20056;-74
2022/11/25 03:46:29;;;;;;;16.25;8.23;;;;;;;3.19;100.00;100260.69;20982009;28;20493;-73
2022/11/25 03:56:30;;;;;;;16.23;8.20;;;;;;;3.31;100.00;100252.22;20985808;28;20048;-73
2022/11/25 04:06:32;;;;;;;15.38;7.95;;;;;;;3.07;100.00;100237.28;20994974;28;20052;-73
2022/11/25 04:16:33;;;;;;;16.35;9.35;;;;;;;3.17;100.00;100233.09;20994432;28;20484;-73
2022/11/25 04:26:35;;;;;;;18.92;9.45;;;;;;;3.29;100.00;100234.09;20994124;28;20122;-74
2022/11/25 04:36:36;;;;;;;14.07;8.23;;;;;;;3.37;100.00;100223.81;20992547;28;20056;-74
2022/11/25 04:46:37;;;;;;;16.02;9.20;;;;;;;3.15;100.00;100227.88;20993185;28;20425;-73
2022/11/25 04:56:39;;;;;;;16.45;8.23;;;;;;;2.99;100.00;100257.00;20991429;28;20083;-72
2022/11/25 05:06:40;;;;;;;17.17;7.68;;;;;;;2.81;100.00;100261.09;20990652;28;20052;-72
2022/11/25 05:16:42;;;;;;;15.98;6.88;;;;;;;2.63;100.00;100278.91;20987081;28;20071;-73
2022/11/25 05:26:43;;;;;;;13.02;6.88;;;;;;;2.62;100.00;100281.50;20905889;28;20186;-73
2022/11/25 05:36:45;;;;;;;16.42;9.48;;;;;;;2.60;100.00;100280.63;20905745;28;20045;-74
2022/11/25 05:46:47;;;;;;;13.98;8.48;;;;;;;2.79;100.00;100283.47;20904797;28;20057;-73
2022/11/25 05:56:49;;;;;;;23.63;14.45;;;;;;;2.93;100.00;100306.09;20904770;28;20111;-73
2022/11/25 06:06:50;;;;;;;17.77;9.82;;;;;;;3.11;100.00;100306.28;20903653;28;20425;-74
2022/11/25 06:16:52;;;;;;;20.90;10.77;;;;;;;3.19;100.00;100317.63;20902420;28;20048;-74
2022/11/25 06:26:53;;;;;;;21.27;10.93;;;;;;;3.35;100.00;100326.44;20902229;28;20106;-74
2022/11/25 06:36:55;;;;;;;20.73;12.20;;;;;;;3.53;100.00;100352.53;20902166;28;20056;-74
2022/11/25 06:46:56;;;;;;;19.75;12.07;;;;;;;3.69;100.00;100353.63;20914843;23;20059;-73
2022/11/25 06:56:58;;;;;;;24.52;13.98;;;;;;;3.80;100.00;100354.59;20901301;28;20044;-72
2022/11/25 07:06:59;;;;;;;24.48;12.70;;;;;;;3.96;100.00;100347.84;20900227;28;20045;-73
2022/11/25 07:17:00;;;;;;;17.55;9.77;;;;;;;3.97;100.00;100348.72;20900981;28;20049;-72
2022/11/25 07:27:05;;;;;;;16.50;8.75;;;;;;;4.02;100.00;100370.34;20898091;28;20056;-72
2022/11/25 07:37:07;;;;;;;18.15;9.77;;;;;;;4.17;100.00;100375.72;20913050;28;20685;-72
2022/11/25 07:47:08;;;;;;;20.75;11.93;;;;;;;4.38;100.00;100399.22;20914007;28;20048;-72
2022/11/25 07:57:09;;;;;;;22.50;10.82;;;;;;;4.66;100.00;100396.88;20911309;28;20048;-72
2022/11/25 08:07:11;;;;;;;19.65;10.40;;;;;;;4.81;100.00;100393.53;20910768;28;20044;-72
2022/11/25 08:17:12;;;;;;;15.90;8.98;;;;;;;4.85;100.00;100406.53;20909987;28;20099;-72
2022/11/25 08:27:14;;;;;;;20.58;8.75;;;;;;;5.00;100.00;100407.50;20905888;28;20573;-71
2022/11/25 08:37:15;;;;;;;13.90;7.57;;;;;;;5.16;100.00;100417.13;20906441;28;20667;-71
2022/11/25 08:47:16;;;;;;;15.50;8.05;;;;;;;5.26;100.00;100424.09;20905082;28;20049;-71
2022/11/25 08:57:18;;;;;;;16.13;6.75;;;;;;;5.38;100.00;100431.97;20906870;28;20466;-71
2022/11/25 09:07:19;;;;;;;11.10;6.07;;;;;;;5.61;100.00;100441.63;20906186;28;20822;-70
2022/11/25 09:17:26;;;;;;;11.65;6.45;;;;;;;5.88;100.00;100449.53;20849878;28;20053;-69
2022/11/25 09:27:27;;;;;;;13.75;5.68;;;;;;;6.05;100.00;100462.63;20907997;28;20126;-70
2022/11/25 09:37:28;;;;;;;16.50;6.22;;;;;;;6.20;100.00;100473.97;20905019;28;20406;-70
2022/11/25 09:47:30;;;;;;;15.93;7.10;;;;;;;6.36;100.00;100484.38;20904504;28;20417;-70
2022/11/25 09:57:31;;;;;;;16.25;6.53;;;;;;;6.59;100.00;100500.06;20903294;28;20048;-70
2022/11/25 10:07:33;;;;;;;13.25;6.60;;;;;;;6.81;100.00;100500.97;20902958;28;20068;-70
2022/11/25 10:17:34;;;;;;;13.68;6.30;;;;;;;7.14;100.00;100502.72;20900875;28;20053;-70
2022/11/25 10:27:36;;;;;;;16.77;6.30;;;;;;;7.36;100.00;100511.38;20902669;28;20056;-70
2022/11/25 10:37:37;;;;;;;15.02;7.13;;;;;;;7.41;100.00;100514.84;20901894;28;20115;-70
2022/11/25 10:47:39;;;;;;;14.02;7.60;;;;;;;7.62;100.00;100519.19;20900877;28;20057;-70
2022/11/25 10:57:40;;;;;;;17.63;7.60;;;;;;;7.76;100.00;100519.16;20900947;28;20053;-70
2022/11/25 11:07:42;;;;;;;16.65;6.22;;;;;;;8.04;100.00;100512.09;20909725;28;20075;-69
2022/11/25 11:17:43;;;;;;;15.13;6.55;;;;;;;8.12;100.00;100520.75;20917097;28;20144;-70
2022/11/25 11:27:45;;;;;;;14.13;5.68;;;;;;;8.33;100.00;100517.19;20915952;28;20055;-70
2022/11/25 11:37:46;;;;;;;20.65;7.72;;;;;;;8.43;100.00;100521.53;20915230;28;20049;-69
2022/11/25 11:47:47;;;;;;;19.35;7.50;;;;;;;8.58;100.00;100527.56;20914363;28;20547;-70
2022/11/25 11:57:49;;;;;;;13.40;5.75;;;;;;;8.65;100.00;100524.03;20913601;28;20049;-70
2022/11/25 12:07:50;;;;;;;11.50;5.70;;;;;;;8.64;100.00;100546.66;20912864;28;20045;-70
2022/11/25 12:17:51;;;;;;;18.02;6.50;;;;;;;8.85;100.00;100563.06;20911449;28;20079;-69
2022/11/25 12:27:53;;;;;;;16.55;6.97;;;;;;;9.13;100.00;100564.59;20910421;28;20501;-71
2022/11/25 12:37:54;;;;;;;15.55;5.63;;;;;;;9.46;100.00;100571.31;20910396;28;20044;-71
2022/11/25 12:47:56;;;;;;;9.57;4.05;;;;;;;9.55;100.00;100593.03;20909832;28;20052;-71
2022/11/25 12:57:57;;;;;;;9.70;4.32;;;;;;;9.50;100.00;100601.78;20908672;28;20060;-71
2022/11/25 13:07:59;;;;;;;14.23;4.88;;;;;;;9.60;100.00;100614.78;20906920;28;20056;-71
2022/11/25 13:18:00;;;;;;;13.15;4.80;;;;;;;9.62;100.00;100607.78;20907371;28;20049;-72
2022/11/25 13:28:01;;;;;;;13.77;5.55;;;;;;;9.55;100.00;100632.25;20906126;28;20135;-72
2022/11/25 13:38:03;;;;;;;18.95;6.45;;;;;;;9.41;100.00;100638.44;20901357;28;20049;-69
2022/11/25 13:48:04;;;;;;;12.13;5.07;;;;;;;9.33;100.00;100657.66;20903783;28;20045;-69
2022/11/25 13:58:05;;;;;;;13.38;5.75;;;;;;;9.40;100.00;100670.69;20903309;28;20049;-71
2022/11/25 14:08:07;;;;;;;17.13;6.05;;;;;;;9.33;100.00;100689.03;20903044;28;20433;-69
2022/11/25 14:18:08;;;;;;;19.98;7.03;;;;;;;9.28;100.00;100701.25;20902542;28;20135;-70
2022/11/25 14:28:09;;;;;;;18.13;5.93;;;;;;;9.20;100.00;100715.22;20904365;28;20064;-69
2022/11/25 14:38:11;;;;;;;15.68;5.53;;;;;;;9.13;100.00;100723.09;20900011;28;20057;-70
2022/11/25 14:48:12;;;;;;;19.23;5.70;;;;;;;9.13;100.00;100728.31;20901902;28;20045;-69
2022/11/25 14:58:14;;;;;;;10.40;4.95;;;;;;;9.12;100.00;100726.59;20901032;28;20095;-70
2022/11/25 15:08:20;;;;;;;14.98;5.07;;;;;;;9.00;100.00;100749.25;20896485;28;20049;-69
2022/11/25 15:18:22;;;;;;;14.23;5.10;;;;;;;9.02;100.00;100762.31;20877434;28;20049;-69
2022/11/25 15:28:23;;;;;;;13.18;4.53;;;;;;;8.85;100.00;100775.41;20899438;28;20083;-68
2022/11/25 15:38:25;;;;;;;11.02;5.30;;;;;;;8.66;100.00;100786.78;20900121;28;20049;-69
2022/11/25 15:48:26;;;;;;;18.85;5.45;;;;;;;8.40;100.00;100798.13;20903134;28;20060;-69
2022/11/25 15:58:27;;;;;;;12.75;6.10;;;;;;;8.06;100.00;100805.03;20919273;28;20052;-68
2022/11/25 16:08:29;;;;;;;15.20;7.00;;;;;;;7.81;100.00;100809.34;20918369;28;20085;-68
2022/11/25 16:18:30;;;;;;;17.45;7.10;;;;;;;7.62;100.00;100825.81;20911452;28;20057;-68
2022/11/25 16:28:40;;;;;;;15.88;7.00;;;;;;;7.49;100.00;100834.44;20911105;28;20148;-69
2022/11/25 16:38:42;;;;;;;14.15;6.78;;;;;;;7.37;100.00;100848.28;20909908;28;20041;-68
2022/11/25 16:48:43;;;;;;;20.40;9.52;;;;;;;7.28;100.00;100851.72;20908374;28;20057;-69
2022/11/25 16:58:45;;;;;;;23.13;11.32;;;;;;;7.12;100.00;100871.59;20901789;28;20058;-69
2022/11/25 17:08:46;;;;;;;42.33;15.95;;;;;;;7.07;100.00;100895.88;20894622;28;20053;-69
2022/11/25 17:18:48;;;;;;;33.58;12.98;;;;;;;7.13;100.00;100893.28;20902369;28;20057;-68
2022/11/25 17:28:49;;;;;;;21.60;10.52;;;;;;;7.15;100.00;100915.03;20894653;28;20063;-68
2022/11/25 17:38:50;;;;;;;24.95;10.85;;;;;;;7.11;100.00;100931.47;20894765;28;20053;-68
2022/11/25 17:48:52;;;;;;;21.23;10.82;;;;;;;7.00;100.00;100943.56;20895231;28;20057;-68
2022/11/25 17:58:53;;;;;;;20.73;10.20;;;;;;;6.83;100.00;100959.91;20894204;28;20056;-68
2022/11/25 18:08:54;;;;;;;21.77;10.65;;;;;;;6.59;100.00;100967.50;20893638;28;20060;-68
2022/11/25 18:18:56;;;;;;;30.40;14.73;;;;;;;6.42;100.00;100985.53;20892734;28;20051;-68
2022/11/25 18:28:58;;;;;;;29.13;13.55;;;;;;;6.26;100.00;101004.41;20892819;28;20056;-67
2022/11/25 18:38:59;;;;;;;31.10;15.18;;;;;;;6.23;100.00;101005.28;20891141;28;20563;-68
2022/11/25 18:49:02;;;;;;;33.80;18.65;;;;;;;6.16;100.00;101024.22;20985043;23;20063;-73
2022/11/25 18:59:03;;;;;;;34.75;18.00;;;;;;;6.09;100.00;101040.63;20890269;28;20044;-73
2022/11/25 19:09:05;;;;;;;34.85;18.02;;;;;;;6.01;100.00;101060.44;20890872;28;20075;-72
2022/11/25 19:19:07;;;;;;;47.38;18.80;;;;;;;5.96;100.00;101082.91;20834340;28;20057;-72
2022/11/25 19:29:10;;;;;;;44.15;22.48;;;;;;;6.06;100.00;101092.56;20897885;28;20060;-73
2022/11/25 19:39:11;;;;;;;38.58;20.13;;;;;;;6.12;100.00;101110.84;20905016;28;20049;-73
2022/11/25 19:49:13;;;;;;;32.58;16.70;;;;;;;6.16;100.00;101133.44;20904240;28;20052;-73
2022/11/25 19:59:15;;;;;;;27.55;11.95;;;;;;;6.21;100.00;101152.56;20903103;28;20061;-72
2022/11/25 20:09:16;;;;;;;24.13;9.93;;;;;;;6.26;100.00;101161.31;20903896;28;20106;-73
2022/11/25 20:19:18;;;;;;;32.58;16.73;;;;;;;6.29;100.00;101182.19;20847788;28;20080;-74
2022/11/25 20:29:19;;;;;;;29.92;13.32;;;;;;;6.28;100.00;101190.84;20865882;28;20456;-73
2022/11/25 20:39:27;;;;;;;21.42;10.23;;;;;;;6.29;100.00;101213.38;20819309;28;20465;-73
2022/11/25 20:49:29;;;;;;;21.20;9.43;;;;;;;6.34;100.00;101226.47;20809712;28;20057;-72
2022/11/25 20:59:30;;;;;;;25.20;10.82;;;;;;;6.35;100.00;101239.47;20818195;28;20056;-73
2022/11/25 21:09:31;;;;;;;28.70;15.15;;;;;;;6.37;100.00;101255.09;20817506;28;20057;-73
2022/11/25 21:19:33;;;;;;;21.20;10.00;;;;;;;6.42;100.00;101272.53;20823052;28;20059;-73
2022/11/25 21:29:34;;;;;;;23.33;8.65;;;;;;;6.47;100.00;101276.91;20899310;28;20057;-73
2022/11/25 21:39:36;;;;;;;23.50;9.27;;;;;;;6.51;100.00;101268.31;20897587;28;20056;-73
2022/11/25 21:49:38;;;;;;;24.40;8.10;;;;;;;6.48;100.00;101286.50;20895822;28;20057;-73
2022/11/25 21:59:39;;;;;;;20.85;8.43;;;;;;;6.43;100.00;101295.09;20896044;28;20075;-73
2022/11/25 22:09:40;;;;;;;28.20;9.80;;;;;;;6.30;100.00;101307.88;20823069;28;20053;-74
2022/11/25 22:19:42;;;;;;;28.08;13.18;;;;;;;6.16;100.00;101284.25;20834667;28;20052;-73
2022/11/25 22:29:43;;;;;;;27.08;10.70;;;;;;;5.91;100.00;101298.53;20894950;28;20057;-72
2022/11/25 22:39:45;;;;;;;21.05;9.68;;;;;;;5.69;100.00;101302.44;20894508;28;20049;-70
2022/11/25 22:49:46;;;;;;;24.50;9.52;;;;;;;5.55;100.00;101320.38;20894153;28;20056;-71
2022/11/25 22:59:48;;;;;;;24.55;10.50;;;;;;;5.40;100.00;101338.25;20894416;28;20060;-70
2022/11/25 23:09:49;;;;;;;21.67;8.13;;;;;;;5.26;100.00;101356.13;20835002;28;20057;-71
2022/11/25 23:19:50;;;;;;;20.85;8.80;;;;;;;5.15;100.00;101355.03;20833526;28;20053;-71
2022/11/25 23:29:52;;;;;;;17.88;7.45;;;;;;;5.08;100.00;101367.03;20897805;22;20123;-85
2022/11/25 23:39:53;;;;;;;20.13;7.75;;;;;;;4.97;100.00;101380.59;20878362;28;20056;-83
2022/11/25 23:49:54;;;;;;;26.08;8.10;;;;;;;4.95;100.00;101398.72;20888346;28;20079;-84
2022/11/25 23:59:56;;;;;;;25.85;9.95;;;;;;;4.75;100.00;101400.84;20882187;28;20053;-84
